Track груздева елизавета

Time Latitude Longitude Accuracy (66% radius in meters) Altitude (meters) Speed (km/hour) Bearing (degrees) Battery (%) GPS flag
10:36:16 59.742860 30.397262 10 56.2 0.53473675251007 229.80000305176 39 1 delete
10:36:11 59.742943 30.397367 11 55.3 1.9332791566849 229.80000305176 39 1 delete
10:36:05 59.743002 30.397473 7 54.9 2.4577326774597 229.80000305176 39 1 delete
10:36:04 59.743023 30.397478 20.875 54.6 3.8254249095917 225.44999694824 39 1 delete
10:36:00 59.743120 30.397410 11 53.3 3.2598378658295 220.13000488281 39 1 delete
10:35:55 59.743195 30.397415 8 54.7 1.2288663387299 195.80000305176 39 1 delete
10:35:52 59.743230 30.397420 9 53.8 1.0283399820328 197.17999267578 39 1 delete
10:35:45 59.743325 30.397488 7 54.7 1.4293925762177 182.89999389648 39 1 delete
10:35:43 59.743353 30.397522 9 55.6 1.2648582458496 177.86999511719 39 1 delete
10:35:38 59.743408 30.397587 10 52.8 1.4808096885681 172.30000305176 39 1 delete
10:35:31 59.743473 30.397578 8 52.9 1.0334817171097 113.55000305176 39 1 delete
10:35:28 59.743503 30.397590 8 52.9 1.9332791566849 74.5 39 1 delete
10:35:18 59.743442 30.397725 9 52.7 0 123.76000213623 39 1 delete
10:35:17 59.743440 30.397727 7 52.8 0 123.76000213623 39 1 delete
10:35:10 59.743480 30.397562 9 52.5 2.1029553413391 97.910003662109 39 1 delete
10:35:03 59.743588 30.397360 7 45.7 0.93578940629959 266.07998657227 39 1 delete
10:35:00 59.743530 30.397387 10 46.3 1.305991768837 266.07998657227 39 1 delete
10:34:52 59.743420 30.397425 10 41.6 0 158.38000488281 39 1 delete
10:34:34 59.743450 30.397380 7 34.7 1.1723076105118 151.9700012207 39 1 delete
10:34:22 59.743457 30.397390 7 39.6 0 151.9700012207 39 1 delete
10:34:10 59.743443 30.397518 10 42.4 0 151.9700012207 39 1 delete
10:33:59 59.743415 30.397605 8 40.9 0 151.9700012207 39 1 delete
10:33:48 59.743390 30.397572 8 40.2 0 151.9700012207 39 1 delete
10:33:32 59.743428 30.397547 8 45.6 0 151.9700012207 39 1 delete
10:33:18 59.743455 30.397537 8 60.1 0 151.9700012207 39 1 delete
10:33:07 59.743468 30.397542 8 61.3 0 151.9700012207 39 1 delete
10:32:52 59.743465 30.397512 10 62.8 0 151.9700012207 39 1 delete
10:32:39 59.743463 30.397462 9 63.9 0 151.9700012207 39 1 delete
10:32:22 59.743482 30.397448 8 64.8 0 202.57000732422 39 1 delete
10:32:10 59.743493 30.397408 8 63.4 0 202.57000732422 39 1 delete
10:31:58 59.743490 30.397420 8 60 0 202.57000732422 39 1 delete
10:31:47 59.743490 30.397412 9 57.3 0.37534409761429 202.57000732422 39 1 delete
10:31:35 59.743488 30.397437 8 52.4 0 202.57000732422 39 1 delete
10:31:25 59.743452 30.397473 10 48.7 0 202.57000732422 39 1 delete
10:31:10 59.743428 30.397445 9 43.7 0 202.57000732422 39 1 delete
10:30:59 59.743418 30.397438 7 40.3 0 202.57000732422 39 1 delete
10:30:44 59.743423 30.397415 10 42.6 0 202.57000732422 39 1 delete
10:30:29 59.743415 30.397383 8 38.9 0.28793519735336 202.57000732422 39 1 delete
10:30:18 59.743458 30.397523 8 45.2 0.66842097043991 159.25999450684 39 1 delete
10:30:16 59.743473 30.397518 8 45.9 1.2494331598282 159.25999450684 39 1 delete
10:30:13 59.743548 30.397460 7 48.2 1.5425100326538 199.36000061035 39 1 delete
10:30:05 59.743685 30.397492 7 62.9 0 131.2200012207 39 1 delete
10:29:53 59.743683 30.397492 7 60 0 131.2200012207 39 1 delete
10:29:41 59.743680 30.397490 7 51.8 0 131.2200012207 39 1 delete
10:29:30 59.743682 30.397492 7 52.8 0 131.2200012207 39 1 delete
10:29:19 59.743668 30.397460 9 49.4 0 131.2200012207 39 1 delete
10:29:05 59.743667 30.397462 8 49.5 0 131.2200012207 39 1 delete
10:28:55 59.743658 30.397450 8 50.9 0 131.2200012207 39 1 delete
10:28:44 59.743652 30.397427 10 52.7 0 131.2200012207 39 1 delete
10:28:23 59.743645 30.397422 8 51.7 0.67356264591217 131.2200012207 39 1 delete